sensor_id;sensor_type;location;lat;lon;timestamp;P1;durP1;ratioP1;P2;durP2;ratioP2
67274;SDS011;55463;52.324;5.122;2023-01-01T00:01:28;29.08;;;17.90;;
67274;SDS011;55463;52.324;5.122;2023-01-01T00:03:54;29.88;;;17.85;;
67274;SDS011;55463;52.324;5.122;2023-01-01T00:06:21;30.85;;;19.00;;
67274;SDS011;55463;52.324;5.122;2023-01-01T00:08:47;28.80;;;18.95;;
67274;SDS011;55463;52.324;5.122;2023-01-01T00:11:13;32.03;;;18.42;;
67274;SDS011;55463;52.324;5.122;2023-01-01T00:13:40;28.98;;;19.27;;
67274;SDS011;55463;52.324;5.122;2023-01-01T00:16:09;27.33;;;18.05;;
67274;SDS011;55463;52.324;5.122;2023-01-01T00:18:36;31.33;;;18.70;;
67274;SDS011;55463;52.324;5.122;2023-01-01T00:21:03;32.15;;;18.95;;
67274;SDS011;55463;52.324;5.122;2023-01-01T00:23:30;28.05;;;18.25;;
67274;SDS011;55463;52.324;5.122;2023-01-01T00:25:55;30.83;;;19.05;;
67274;SDS011;55463;52.324;5.122;2023-01-01T00:28:20;29.58;;;19.67;;
67274;SDS011;55463;52.324;5.122;2023-01-01T00:30:46;30.15;;;20.23;;
67274;SDS011;55463;52.324;5.122;2023-01-01T00:33:12;32.55;;;18.88;;
67274;SDS011;55463;52.324;5.122;2023-01-01T00:35:37;30.95;;;19.50;;
67274;SDS011;55463;52.324;5.122;2023-01-01T00:38:02;27.73;;;18.73;;
67274;SDS011;55463;52.324;5.122;2023-01-01T00:40:28;27.55;;;19.92;;
67274;SDS011;55463;52.324;5.122;2023-01-01T00:42:53;29.77;;;18.35;;
67274;SDS011;55463;52.324;5.122;2023-01-01T00:45:18;27.40;;;18.70;;
67274;SDS011;55463;52.324;5.122;2023-01-01T00:47:45;28.05;;;19.40;;
67274;SDS011;55463;52.324;5.122;2023-01-01T00:50:10;31.08;;;18.50;;
67274;SDS011;55463;52.324;5.122;2023-01-01T00:52:36;29.02;;;19.00;;
67274;SDS011;55463;52.324;5.122;2023-01-01T00:55:01;25.70;;;18.02;;
67274;SDS011;55463;52.324;5.122;2023-01-01T00:57:26;27.08;;;18.38;;
67274;SDS011;55463;52.324;5.122;2023-01-01T00:59:52;25.45;;;18.00;;
67274;SDS011;55463;52.324;5.122;2023-01-01T01:02:17;28.05;;;18.05;;
67274;SDS011;55463;52.324;5.122;2023-01-01T01:04:42;26.05;;;18.13;;
67274;SDS011;55463;52.324;5.122;2023-01-01T01:07:08;23.92;;;17.33;;
67274;SDS011;55463;52.324;5.122;2023-01-01T01:09:33;24.75;;;17.20;;
67274;SDS011;55463;52.324;5.122;2023-01-01T01:11:58;27.70;;;18.23;;
67274;SDS011;55463;52.324;5.122;2023-01-01T01:14:24;26.00;;;17.70;;
67274;SDS011;55463;52.324;5.122;2023-01-01T01:16:49;24.98;;;17.02;;
67274;SDS011;55463;52.324;5.122;2023-01-01T01:19:15;25.27;;;17.45;;
67274;SDS011;55463;52.324;5.122;2023-01-01T01:21:43;26.17;;;17.13;;
67274;SDS011;55463;52.324;5.122;2023-01-01T01:24:11;26.65;;;17.17;;
67274;SDS011;55463;52.324;5.122;2023-01-01T01:26:37;26.25;;;17.45;;
67274;SDS011;55463;52.324;5.122;2023-01-01T01:29:02;25.15;;;17.75;;
67274;SDS011;55463;52.324;5.122;2023-01-01T01:31:29;22.17;;;15.95;;
67274;SDS011;55463;52.324;5.122;2023-01-01T01:33:56;22.40;;;16.45;;
67274;SDS011;55463;52.324;5.122;2023-01-01T01:36:22;22.38;;;15.40;;
67274;SDS011;55463;52.324;5.122;2023-01-01T01:38:48;23.17;;;15.60;;
67274;SDS011;55463;52.324;5.122;2023-01-01T01:41:15;27.50;;;16.50;;
67274;SDS011;55463;52.324;5.122;2023-01-01T01:46:21;21.80;;;15.65;;
67274;SDS011;55463;52.324;5.122;2023-01-01T01:48:52;25.20;;;14.98;;
67274;SDS011;55463;52.324;5.122;2023-01-01T01:51:22;23.15;;;15.30;;
67274;SDS011;55463;52.324;5.122;2023-01-01T01:53:53;23.92;;;14.63;;
67274;SDS011;55463;52.324;5.122;2023-01-01T01:59:18;21.58;;;15.25;;
67274;SDS011;55463;52.324;5.122;2023-01-01T02:01:45;21.90;;;15.10;;
67274;SDS011;55463;52.324;5.122;2023-01-01T02:04:11;25.88;;;15.48;;
67274;SDS011;55463;52.324;5.122;2023-01-01T02:06:37;21.27;;;14.23;;
67274;SDS011;55463;52.324;5.122;2023-01-01T02:09:04;21.70;;;14.98;;
67274;SDS011;55463;52.324;5.122;2023-01-01T02:11:31;23.73;;;14.85;;
67274;SDS011;55463;52.324;5.122;2023-01-01T02:13:57;19.88;;;14.25;;
67274;SDS011;55463;52.324;5.122;2023-01-01T02:19:12;22.80;;;14.57;;
67274;SDS011;55463;52.324;5.122;2023-01-01T02:22:15;20.10;;;13.75;;
67274;SDS011;55463;52.324;5.122;2023-01-01T02:30:16;19.48;;;13.57;;
67274;SDS011;55463;52.324;5.122;2023-01-01T02:32:44;21.45;;;13.63;;
67274;SDS011;55463;52.324;5.122;2023-01-01T02:36:14;19.73;;;13.35;;
67274;SDS011;55463;52.324;5.122;2023-01-01T02:38:34;18.48;;;12.93;;
67274;SDS011;55463;52.324;5.122;2023-01-01T02:41:46;21.25;;;13.25;;
67274;SDS011;55463;52.324;5.122;2023-01-01T02:43:54;17.85;;;13.18;;
67274;SDS011;55463;52.324;5.122;2023-01-01T02:46:20;19.98;;;13.02;;
67274;SDS011;55463;52.324;5.122;2023-01-01T02:48:46;17.75;;;12.50;;
67274;SDS011;55463;52.324;5.122;2023-01-01T02:54:11;23.23;;;12.43;;
67274;SDS011;55463;52.324;5.122;2023-01-01T02:56:46;17.75;;;11.73;;
67274;SDS011;55463;52.324;5.122;2023-01-01T03:02:13;17.50;;;12.20;;
67274;SDS011;55463;52.324;5.122;2023-01-01T03:07:35;17.90;;;11.60;;
67274;SDS011;55463;52.324;5.122;2023-01-01T03:10:14;18.65;;;11.30;;
67274;SDS011;55463;52.324;5.122;2023-01-01T03:12:49;18.92;;;11.68;;
67274;SDS011;55463;52.324;5.122;2023-01-01T03:24:06;17.90;;;11.23;;
67274;SDS011;55463;52.324;5.122;2023-01-01T03:26:36;16.92;;;10.98;;
67274;SDS011;55463;52.324;5.122;2023-01-01T03:29:04;16.38;;;10.63;;
67274;SDS011;55463;52.324;5.122;2023-01-01T03:31:34;15.57;;;10.85;;
67274;SDS011;55463;52.324;5.122;2023-01-01T03:34:08;16.85;;;10.52;;
67274;SDS011;55463;52.324;5.122;2023-01-01T03:36:38;17.58;;;10.52;;
67274;SDS011;55463;52.324;5.122;2023-01-01T03:39:11;15.18;;;11.05;;
67274;SDS011;55463;52.324;5.122;2023-01-01T03:41:59;16.95;;;10.45;;
67274;SDS011;55463;52.324;5.122;2023-01-01T03:44:31;14.88;;;10.35;;
67274;SDS011;55463;52.324;5.122;2023-01-01T03:46:59;14.48;;;10.25;;
67274;SDS011;55463;52.324;5.122;2023-01-01T03:49:25;15.50;;;10.85;;
67274;SDS011;55463;52.324;5.122;2023-01-01T03:51:58;13.13;;;9.75;;
67274;SDS011;55463;52.324;5.122;2023-01-01T04:00:06;14.13;;;9.57;;
67274;SDS011;55463;52.324;5.122;2023-01-01T04:02:35;12.27;;;9.40;;
67274;SDS011;55463;52.324;5.122;2023-01-01T04:05:05;13.07;;;9.35;;
67274;SDS011;55463;52.324;5.122;2023-01-01T04:07:31;15.45;;;10.15;;
67274;SDS011;55463;52.324;5.122;2023-01-01T04:09:59;16.00;;;9.65;;
67274;SDS011;55463;52.324;5.122;2023-01-01T04:12:25;14.25;;;9.10;;
67274;SDS011;55463;52.324;5.122;2023-01-01T04:14:52;12.98;;;9.55;;
67274;SDS011;55463;52.324;5.122;2023-01-01T04:17:17;13.65;;;9.07;;
67274;SDS011;55463;52.324;5.122;2023-01-01T04:19:43;13.15;;;9.32;;
67274;SDS011;55463;52.324;5.122;2023-01-01T04:22:08;14.35;;;9.55;;
67274;SDS011;55463;52.324;5.122;2023-01-01T04:24:34;13.60;;;9.27;;
67274;SDS011;55463;52.324;5.122;2023-01-01T04:26:59;12.48;;;8.98;;
67274;SDS011;55463;52.324;5.122;2023-01-01T04:29:24;11.95;;;8.48;;
67274;SDS011;55463;52.324;5.122;2023-01-01T04:31:50;13.00;;;9.10;;
67274;SDS011;55463;52.324;5.122;2023-01-01T04:34:15;13.35;;;8.93;;
67274;SDS011;55463;52.324;5.122;2023-01-01T04:36:41;13.70;;;9.00;;
67274;SDS011;55463;52.324;5.122;2023-01-01T04:39:06;13.20;;;9.15;;
67274;SDS011;55463;52.324;5.122;2023-01-01T04:41:32;12.65;;;8.20;;
67274;SDS011;55463;52.324;5.122;2023-01-01T04:43:58;16.45;;;8.93;;
67274;SDS011;55463;52.324;5.122;2023-01-01T04:46:23;10.15;;;7.78;;
67274;SDS011;55463;52.324;5.122;2023-01-01T04:48:49;12.18;;;8.57;;
67274;SDS011;55463;52.324;5.122;2023-01-01T04:51:15;11.38;;;8.48;;
67274;SDS011;55463;52.324;5.122;2023-01-01T04:53:42;11.55;;;8.27;;
67274;SDS011;55463;52.324;5.122;2023-01-01T04:56:09;10.38;;;8.07;;
67274;SDS011;55463;52.324;5.122;2023-01-01T04:58:37;11.57;;;7.78;;
67274;SDS011;55463;52.324;5.122;2023-01-01T05:01:04;12.27;;;8.18;;
67274;SDS011;55463;52.324;5.122;2023-01-01T05:03:31;11.75;;;7.90;;
67274;SDS011;55463;52.324;5.122;2023-01-01T05:06:00;12.13;;;7.47;;
67274;SDS011;55463;52.324;5.122;2023-01-01T05:08:33;11.68;;;8.00;;
67274;SDS011;55463;52.324;5.122;2023-01-01T05:11:00;9.48;;;7.32;;
67274;SDS011;55463;52.324;5.122;2023-01-01T05:13:26;11.73;;;7.85;;
67274;SDS011;55463;52.324;5.122;2023-01-01T05:15:51;10.93;;;7.40;;
67274;SDS011;55463;52.324;5.122;2023-01-01T05:18:17;11.55;;;7.53;;
67274;SDS011;55463;52.324;5.122;2023-01-01T05:20:42;11.73;;;7.03;;
67274;SDS011;55463;52.324;5.122;2023-01-01T05:23:07;9.63;;;7.15;;
67274;SDS011;55463;52.324;5.122;2023-01-01T05:25:33;13.55;;;7.53;;
67274;SDS011;55463;52.324;5.122;2023-01-01T05:27:58;8.23;;;6.55;;
67274;SDS011;55463;52.324;5.122;2023-01-01T05:30:23;9.65;;;6.88;;
67274;SDS011;55463;52.324;5.122;2023-01-01T05:32:49;9.25;;;7.28;;
67274;SDS011;55463;52.324;5.122;2023-01-01T05:35:14;10.05;;;6.75;;
67274;SDS011;55463;52.324;5.122;2023-01-01T05:37:39;10.57;;;6.82;;
67274;SDS011;55463;52.324;5.122;2023-01-01T05:40:05;11.20;;;7.03;;
67274;SDS011;55463;52.324;5.122;2023-01-01T05:42:30;10.45;;;6.53;;
67274;SDS011;55463;52.324;5.122;2023-01-01T05:44:56;9.65;;;6.38;;
67274;SDS011;55463;52.324;5.122;2023-01-01T05:47:21;8.00;;;6.32;;
67274;SDS011;55463;52.324;5.122;2023-01-01T05:49:47;9.85;;;6.47;;
67274;SDS011;55463;52.324;5.122;2023-01-01T05:52:12;9.85;;;6.72;;
67274;SDS011;55463;52.324;5.122;2023-01-01T05:54:37;10.77;;;6.45;;
67274;SDS011;55463;52.324;5.122;2023-01-01T05:57:03;9.50;;;7.00;;
67274;SDS011;55463;52.324;5.122;2023-01-01T05:59:28;8.18;;;6.13;;
67274;SDS011;55463;52.324;5.122;2023-01-01T06:01:53;8.27;;;6.05;;
67274;SDS011;55463;52.324;5.122;2023-01-01T06:04:19;7.38;;;5.45;;
67274;SDS011;55463;52.324;5.122;2023-01-01T06:06:44;8.60;;;6.10;;
67274;SDS011;55463;52.324;5.122;2023-01-01T06:09:09;8.25;;;6.38;;
67274;SDS011;55463;52.324;5.122;2023-01-01T06:11:35;16.65;;;6.32;;
67274;SDS011;55463;52.324;5.122;2023-01-01T06:14:01;9.07;;;6.28;;
67274;SDS011;55463;52.324;5.122;2023-01-01T06:16:27;9.23;;;6.25;;
67274;SDS011;55463;52.324;5.122;2023-01-01T06:18:53;8.25;;;6.07;;
67274;SDS011;55463;52.324;5.122;2023-01-01T06:21:20;9.32;;;5.82;;
67274;SDS011;55463;52.324;5.122;2023-01-01T06:23:47;10.00;;;6.15;;
67274;SDS011;55463;52.324;5.122;2023-01-01T06:26:14;10.00;;;6.30;;
67274;SDS011;55463;52.324;5.122;2023-01-01T06:28:41;8.75;;;6.50;;
67274;SDS011;55463;52.324;5.122;2023-01-01T06:31:08;8.27;;;5.50;;
67274;SDS011;55463;52.324;5.122;2023-01-01T06:33:35;7.03;;;5.55;;
67274;SDS011;55463;52.324;5.122;2023-01-01T06:36:02;10.45;;;6.25;;
67274;SDS011;55463;52.324;5.122;2023-01-01T06:38:30;10.45;;;5.63;;
67274;SDS011;55463;52.324;5.122;2023-01-01T06:41:21;7.37;;;5.20;;
67274;SDS011;55463;52.324;5.122;2023-01-01T06:43:46;9.73;;;5.82;;
67274;SDS011;55463;52.324;5.122;2023-01-01T06:46:18;6.75;;;5.47;;
67274;SDS011;55463;52.324;5.122;2023-01-01T06:48:48;9.02;;;5.60;;
67274;SDS011;55463;52.324;5.122;2023-01-01T06:51:16;6.97;;;5.25;;
67274;SDS011;55463;52.324;5.122;2023-01-01T06:53:43;8.70;;;5.50;;
67274;SDS011;55463;52.324;5.122;2023-01-01T06:56:09;8.43;;;5.60;;
67274;SDS011;55463;52.324;5.122;2023-01-01T06:58:35;7.60;;;5.20;;
67274;SDS011;55463;52.324;5.122;2023-01-01T07:03:35;9.52;;;5.18;;
67274;SDS011;55463;52.324;5.122;2023-01-01T07:06:01;9.18;;;5.05;;
67274;SDS011;55463;52.324;5.122;2023-01-01T07:08:27;8.05;;;5.25;;
67274;SDS011;55463;52.324;5.122;2023-01-01T07:10:52;7.20;;;5.15;;
67274;SDS011;55463;52.324;5.122;2023-01-01T07:13:21;9.57;;;5.65;;
67274;SDS011;55463;52.324;5.122;2023-01-01T07:15:46;7.95;;;4.82;;
67274;SDS011;55463;52.324;5.122;2023-01-01T07:18:12;7.75;;;5.18;;
67274;SDS011;55463;52.324;5.122;2023-01-01T07:20:37;9.05;;;5.53;;
67274;SDS011;55463;52.324;5.122;2023-01-01T07:23:02;9.25;;;5.25;;
67274;SDS011;55463;52.324;5.122;2023-01-01T07:25:28;7.25;;;4.82;;
67274;SDS011;55463;52.324;5.122;2023-01-01T07:27:53;6.95;;;4.88;;
67274;SDS011;55463;52.324;5.122;2023-01-01T07:30:18;10.52;;;5.25;;
67274;SDS011;55463;52.324;5.122;2023-01-01T07:32:44;6.80;;;4.97;;
67274;SDS011;55463;52.324;5.122;2023-01-01T07:35:09;6.70;;;4.53;;
67274;SDS011;55463;52.324;5.122;2023-01-01T07:37:35;7.53;;;4.88;;
67274;SDS011;55463;52.324;5.122;2023-01-01T07:40:00;7.22;;;4.53;;
67274;SDS011;55463;52.324;5.122;2023-01-01T07:42:26;6.93;;;4.65;;
67274;SDS011;55463;52.324;5.122;2023-01-01T07:44:51;7.05;;;4.63;;
67274;SDS011;55463;52.324;5.122;2023-01-01T07:47:24;6.88;;;4.80;;
67274;SDS011;55463;52.324;5.122;2023-01-01T07:49:50;7.53;;;4.40;;
67274;SDS011;55463;52.324;5.122;2023-01-01T07:52:16;7.85;;;4.38;;
67274;SDS011;55463;52.324;5.122;2023-01-01T07:54:42;7.13;;;4.60;;
67274;SDS011;55463;52.324;5.122;2023-01-01T07:57:08;10.70;;;4.75;;
67274;SDS011;55463;52.324;5.122;2023-01-01T07:59:33;8.07;;;4.32;;
67274;SDS011;55463;52.324;5.122;2023-01-01T08:01:59;6.20;;;3.95;;
67274;SDS011;55463;52.324;5.122;2023-01-01T08:04:24;7.32;;;4.00;;
67274;SDS011;55463;52.324;5.122;2023-01-01T08:06:51;8.00;;;4.00;;
67274;SDS011;55463;52.324;5.122;2023-01-01T08:09:19;11.82;;;4.50;;
67274;SDS011;55463;52.324;5.122;2023-01-01T08:11:44;7.80;;;3.45;;
67274;SDS011;55463;52.324;5.122;2023-01-01T08:14:10;11.75;;;3.97;;
67274;SDS011;55463;52.324;5.122;2023-01-01T08:16:36;7.03;;;3.67;;
67274;SDS011;55463;52.324;5.122;2023-01-01T08:19:01;13.07;;;4.50;;
67274;SDS011;55463;52.324;5.122;2023-01-01T08:21:27;8.93;;;3.35;;
67274;SDS011;55463;52.324;5.122;2023-01-01T08:23:52;9.77;;;3.65;;
67274;SDS011;55463;52.324;5.122;2023-01-01T08:26:25;7.85;;;3.20;;
67274;SDS011;55463;52.324;5.122;2023-01-01T08:28:52;7.63;;;3.03;;
67274;SDS011;55463;52.324;5.122;2023-01-01T08:31:17;6.20;;;2.80;;
67274;SDS011;55463;52.324;5.122;2023-01-01T08:33:43;9.52;;;3.60;;
67274;SDS011;55463;52.324;5.122;2023-01-01T08:36:09;9.63;;;3.40;;
67274;SDS011;55463;52.324;5.122;2023-01-01T08:38:36;7.43;;;2.85;;
67274;SDS011;55463;52.324;5.122;2023-01-01T08:41:02;9.82;;;2.90;;
67274;SDS011;55463;52.324;5.122;2023-01-01T08:43:27;10.70;;;2.85;;
67274;SDS011;55463;52.324;5.122;2023-01-01T08:45:52;11.73;;;2.90;;
67274;SDS011;55463;52.324;5.122;2023-01-01T08:48:18;9.80;;;3.10;;
67274;SDS011;55463;52.324;5.122;2023-01-01T08:50:43;6.88;;;2.47;;
67274;SDS011;55463;52.324;5.122;2023-01-01T08:53:09;11.82;;;3.72;;
67274;SDS011;55463;52.324;5.122;2023-01-01T08:55:34;11.60;;;2.65;;
67274;SDS011;55463;52.324;5.122;2023-01-01T08:57:59;12.30;;;2.45;;
67274;SDS011;55463;52.324;5.122;2023-01-01T09:00:25;12.95;;;3.38;;
67274;SDS011;55463;52.324;5.122;2023-01-01T09:02:50;9.07;;;2.67;;
67274;SDS011;55463;52.324;5.122;2023-01-01T09:05:15;9.70;;;2.97;;
67274;SDS011;55463;52.324;5.122;2023-01-01T09:07:41;9.48;;;2.75;;
67274;SDS011;55463;52.324;5.122;2023-01-01T09:10:06;11.65;;;2.85;;
67274;SDS011;55463;52.324;5.122;2023-01-01T09:12:32;10.40;;;2.95;;
67274;SDS011;55463;52.324;5.122;2023-01-01T09:14:57;9.55;;;2.55;;
67274;SDS011;55463;52.324;5.122;2023-01-01T09:17:23;5.57;;;1.98;;
67274;SDS011;55463;52.324;5.122;2023-01-01T09:19:48;8.52;;;2.70;;
67274;SDS011;55463;52.324;5.122;2023-01-01T09:22:14;9.55;;;2.72;;
67274;SDS011;55463;52.324;5.122;2023-01-01T09:24:39;14.07;;;3.17;;
67274;SDS011;55463;52.324;5.122;2023-01-01T09:27:04;8.60;;;2.83;;
67274;SDS011;55463;52.324;5.122;2023-01-01T09:29:30;8.35;;;2.35;;
67274;SDS011;55463;52.324;5.122;2023-01-01T09:31:55;8.70;;;2.47;;
67274;SDS011;55463;52.324;5.122;2023-01-01T09:34:20;7.47;;;2.20;;
67274;SDS011;55463;52.324;5.122;2023-01-01T09:36:46;13.70;;;2.25;;
67274;SDS011;55463;52.324;5.122;2023-01-01T09:39:12;8.45;;;2.33;;
67274;SDS011;55463;52.324;5.122;2023-01-01T09:46:44;7.22;;;2.13;;
67274;SDS011;55463;52.324;5.122;2023-01-01T09:49:12;7.05;;;2.33;;
67274;SDS011;55463;52.324;5.122;2023-01-01T09:51:47;8.75;;;1.98;;
67274;SDS011;55463;52.324;5.122;2023-01-01T09:54:26;8.02;;;2.58;;
67274;SDS011;55463;52.324;5.122;2023-01-01T09:56:54;7.78;;;2.13;;
67274;SDS011;55463;52.324;5.122;2023-01-01T09:59:22;12.07;;;2.40;;
67274;SDS011;55463;52.324;5.122;2023-01-01T10:01:53;11.02;;;2.50;;
67274;SDS011;55463;52.324;5.122;2023-01-01T10:07:17;11.13;;;3.38;;
67274;SDS011;55463;52.324;5.122;2023-01-01T10:15:25;8.48;;;2.80;;
67274;SDS011;55463;52.324;5.122;2023-01-01T10:17:58;8.45;;;2.40;;
67274;SDS011;55463;52.324;5.122;2023-01-01T10:20:37;8.55;;;2.03;;
67274;SDS011;55463;52.324;5.122;2023-01-01T10:23:10;11.18;;;2.83;;
67274;SDS011;55463;52.324;5.122;2023-01-01T10:25:41;13.23;;;2.38;;
67274;SDS011;55463;52.324;5.122;2023-01-01T10:28:11;17.00;;;2.83;;
67274;SDS011;55463;52.324;5.122;2023-01-01T10:30:57;13.95;;;2.97;;
67274;SDS011;55463;52.324;5.122;2023-01-01T10:33:43;11.30;;;2.65;;
67274;SDS011;55463;52.324;5.122;2023-01-01T10:36:11;14.00;;;2.53;;
67274;SDS011;55463;52.324;5.122;2023-01-01T10:38:39;11.73;;;2.25;;
67274;SDS011;55463;52.324;5.122;2023-01-01T10:41:08;10.30;;;2.17;;
67274;SDS011;55463;52.324;5.122;2023-01-01T10:43:35;15.50;;;2.72;;
67274;SDS011;55463;52.324;5.122;2023-01-01T10:46:02;14.27;;;2.50;;
67274;SDS011;55463;52.324;5.122;2023-01-01T10:48:29;13.43;;;2.42;;
67274;SDS011;55463;52.324;5.122;2023-01-01T10:50:57;11.75;;;2.88;;
67274;SDS011;55463;52.324;5.122;2023-01-01T10:53:28;15.82;;;2.75;;
67274;SDS011;55463;52.324;5.122;2023-01-01T10:58:40;10.70;;;2.67;;
67274;SDS011;55463;52.324;5.122;2023-01-01T11:01:30;10.35;;;2.63;;
67274;SDS011;55463;52.324;5.122;2023-01-01T11:08:49;12.93;;;2.67;;
67274;SDS011;55463;52.324;5.122;2023-01-01T11:17:10;8.35;;;2.58;;
67274;SDS011;55463;52.324;5.122;2023-01-01T11:19:36;12.70;;;2.90;;
67274;SDS011;55463;52.324;5.122;2023-01-01T11:22:04;8.57;;;1.98;;
67274;SDS011;55463;52.324;5.122;2023-01-01T11:24:31;14.65;;;2.65;;
67274;SDS011;55463;52.324;5.122;2023-01-01T11:27:11;12.20;;;2.88;;
67274;SDS011;55463;52.324;5.122;2023-01-01T11:29:46;11.70;;;2.38;;
67274;SDS011;55463;52.324;5.122;2023-01-01T11:32:18;10.70;;;2.45;;
67274;SDS011;55463;52.324;5.122;2023-01-01T11:34:46;12.77;;;2.78;;
67274;SDS011;55463;52.324;5.122;2023-01-01T11:37:36;14.88;;;2.70;;
67274;SDS011;55463;52.324;5.122;2023-01-01T11:40:03;13.57;;;2.75;;
67274;SDS011;55463;52.324;5.122;2023-01-01T11:42:34;19.90;;;2.83;;
67274;SDS011;55463;52.324;5.122;2023-01-01T11:47:43;15.75;;;2.60;;
67274;SDS011;55463;52.324;5.122;2023-01-01T11:52:38;12.15;;;3.13;;
67274;SDS011;55463;52.324;5.122;2023-01-01T11:55:47;17.45;;;3.25;;
67274;SDS011;55463;52.324;5.122;2023-01-01T12:00:53;13.15;;;2.80;;
67274;SDS011;55463;52.324;5.122;2023-01-01T12:08:49;23.67;;;3.53;;
67274;SDS011;55463;52.324;5.122;2023-01-01T12:11:42;11.68;;;3.05;;
67274;SDS011;55463;52.324;5.122;2023-01-01T12:17:03;22.40;;;3.13;;
67274;SDS011;55463;52.324;5.122;2023-01-01T12:19:46;13.15;;;2.50;;
67274;SDS011;55463;52.324;5.122;2023-01-01T12:22:20;13.10;;;2.72;;
67274;SDS011;55463;52.324;5.122;2023-01-01T12:24:45;15.65;;;3.08;;
67274;SDS011;55463;52.324;5.122;2023-01-01T12:27:16;12.05;;;2.83;;
67274;SDS011;55463;52.324;5.122;2023-01-01T12:32:39;18.02;;;3.35;;
67274;SDS011;55463;52.324;5.122;2023-01-01T12:41:22;8.93;;;2.85;;
67274;SDS011;55463;52.324;5.122;2023-01-01T12:46:52;15.77;;;2.85;;
67274;SDS011;55463;52.324;5.122;2023-01-01T12:55:16;20.60;;;3.42;;
67274;SDS011;55463;52.324;5.122;2023-01-01T12:57:56;10.32;;;2.65;;
67274;SDS011;55463;52.324;5.122;2023-01-01T13:00:31;12.02;;;2.80;;
67274;SDS011;55463;52.324;5.122;2023-01-01T13:02:59;12.05;;;2.70;;
67274;SDS011;55463;52.324;5.122;2023-01-01T13:05:36;15.43;;;2.75;;
67274;SDS011;55463;52.324;5.122;2023-01-01T13:08:04;11.98;;;2.78;;
67274;SDS011;55463;52.324;5.122;2023-01-01T13:10:37;14.10;;;2.85;;
67274;SDS011;55463;52.324;5.122;2023-01-01T13:13:05;10.20;;;2.85;;
67274;SDS011;55463;52.324;5.122;2023-01-01T13:20:34;11.32;;;2.75;;
67274;SDS011;55463;52.324;5.122;2023-01-01T13:23:03;16.95;;;2.97;;
67274;SDS011;55463;52.324;5.122;2023-01-01T13:25:29;19.17;;;3.17;;
67274;SDS011;55463;52.324;5.122;2023-01-01T13:44:15;11.32;;;2.75;;
67274;SDS011;55463;52.324;5.122;2023-01-01T13:58:06;16.48;;;3.75;;
67274;SDS011;55463;52.324;5.122;2023-01-01T14:03:25;13.50;;;2.80;;
67274;SDS011;55463;52.324;5.122;2023-01-01T14:10:58;17.55;;;3.20;;
67274;SDS011;55463;52.324;5.122;2023-01-01T14:13:26;17.08;;;3.53;;
67274;SDS011;55463;52.324;5.122;2023-01-01T14:15:55;24.55;;;3.75;;
67274;SDS011;55463;52.324;5.122;2023-01-01T14:18:39;14.38;;;2.72;;
67274;SDS011;55463;52.324;5.122;2023-01-01T14:21:08;17.15;;;3.38;;
67274;SDS011;55463;52.324;5.122;2023-01-01T14:23:43;15.93;;;3.13;;
67274;SDS011;55463;52.324;5.122;2023-01-01T14:26:11;14.68;;;2.72;;
67274;SDS011;55463;52.324;5.122;2023-01-01T14:28:39;24.52;;;3.17;;
67274;SDS011;55463;52.324;5.122;2023-01-01T14:31:08;17.60;;;2.80;;
67274;SDS011;55463;52.324;5.122;2023-01-01T14:33:36;14.02;;;2.90;;
67274;SDS011;55463;52.324;5.122;2023-01-01T14:36:04;20.55;;;3.67;;
67274;SDS011;55463;52.324;5.122;2023-01-01T14:38:50;15.75;;;2.83;;
67274;SDS011;55463;52.324;5.122;2023-01-01T14:44:18;14.77;;;3.42;;
67274;SDS011;55463;52.324;5.122;2023-01-01T14:46:51;9.77;;;3.00;;
67274;SDS011;55463;52.324;5.122;2023-01-01T14:49:19;15.35;;;3.45;;
67274;SDS011;55463;52.324;5.122;2023-01-01T14:51:56;12.98;;;3.35;;
67274;SDS011;55463;52.324;5.122;2023-01-01T14:54:28;13.88;;;3.35;;
67274;SDS011;55463;52.324;5.122;2023-01-01T14:56:57;8.60;;;2.50;;
67274;SDS011;55463;52.324;5.122;2023-01-01T15:02:00;18.02;;;3.20;;
67274;SDS011;55463;52.324;5.122;2023-01-01T15:07:03;12.50;;;2.72;;
67274;SDS011;55463;52.324;5.122;2023-01-01T15:09:29;15.15;;;3.17;;
67274;SDS011;55463;52.324;5.122;2023-01-01T15:11:58;19.05;;;2.85;;
67274;SDS011;55463;52.324;5.122;2023-01-01T15:14:31;15.15;;;3.15;;
67274;SDS011;55463;52.324;5.122;2023-01-01T15:17:02;13.38;;;2.88;;
67274;SDS011;55463;52.324;5.122;2023-01-01T15:19:31;15.77;;;3.28;;
67274;SDS011;55463;52.324;5.122;2023-01-01T15:21:59;16.65;;;3.47;;
67274;SDS011;55463;52.324;5.122;2023-01-01T15:24:25;15.07;;;2.97;;
67274;SDS011;55463;52.324;5.122;2023-01-01T15:26:58;13.02;;;3.22;;
67274;SDS011;55463;52.324;5.122;2023-01-01T15:29:58;19.20;;;3.40;;
67274;SDS011;55463;52.324;5.122;2023-01-01T15:32:25;15.48;;;3.20;;
67274;SDS011;55463;52.324;5.122;2023-01-01T15:34:53;17.45;;;3.58;;
67274;SDS011;55463;52.324;5.122;2023-01-01T15:37:30;17.33;;;3.47;;
67274;SDS011;55463;52.324;5.122;2023-01-01T15:39:59;17.77;;;2.88;;
67274;SDS011;55463;52.324;5.122;2023-01-01T15:42:37;12.63;;;3.20;;
67274;SDS011;55463;52.324;5.122;2023-01-01T15:45:14;17.15;;;3.45;;
67274;SDS011;55463;52.324;5.122;2023-01-01T15:47:43;18.70;;;3.60;;
67274;SDS011;55463;52.324;5.122;2023-01-01T15:50:32;21.13;;;3.72;;
67274;SDS011;55463;52.324;5.122;2023-01-01T15:53:00;19.67;;;3.90;;
67274;SDS011;55463;52.324;5.122;2023-01-01T15:55:32;16.60;;;3.40;;
67274;SDS011;55463;52.324;5.122;2023-01-01T15:57:59;18.75;;;3.30;;
67274;SDS011;55463;52.324;5.122;2023-01-01T16:00:27;14.15;;;3.30;;
67274;SDS011;55463;52.324;5.122;2023-01-01T16:02:56;11.63;;;3.08;;
67274;SDS011;55463;52.324;5.122;2023-01-01T16:05:25;16.25;;;3.35;;
67274;SDS011;55463;52.324;5.122;2023-01-01T16:10:27;15.00;;;3.72;;
67274;SDS011;55463;52.324;5.122;2023-01-01T16:12:53;20.20;;;3.40;;
67274;SDS011;55463;52.324;5.122;2023-01-01T16:15:19;16.05;;;3.40;;
67274;SDS011;55463;52.324;5.122;2023-01-01T16:17:44;16.98;;;3.40;;
67274;SDS011;55463;52.324;5.122;2023-01-01T16:20:16;13.65;;;3.28;;
67274;SDS011;55463;52.324;5.122;2023-01-01T16:22:43;13.43;;;3.17;;
67274;SDS011;55463;52.324;5.122;2023-01-01T16:25:19;15.48;;;3.50;;
67274;SDS011;55463;52.324;5.122;2023-01-01T16:27:46;13.32;;;3.40;;
67274;SDS011;55463;52.324;5.122;2023-01-01T16:30:12;13.73;;;2.90;;
67274;SDS011;55463;52.324;5.122;2023-01-01T16:32:39;12.63;;;2.95;;
67274;SDS011;55463;52.324;5.122;2023-01-01T16:35:05;15.50;;;3.10;;
67274;SDS011;55463;52.324;5.122;2023-01-01T16:37:34;17.20;;;3.50;;
67274;SDS011;55463;52.324;5.122;2023-01-01T16:40:00;20.58;;;4.15;;
67274;SDS011;55463;52.324;5.122;2023-01-01T16:42:25;17.15;;;3.70;;
67274;SDS011;55463;52.324;5.122;2023-01-01T16:44:51;16.30;;;3.67;;
67274;SDS011;55463;52.324;5.122;2023-01-01T16:47:16;15.77;;;4.13;;
67274;SDS011;55463;52.324;5.122;2023-01-01T16:49:42;15.07;;;3.85;;
67274;SDS011;55463;52.324;5.122;2023-01-01T16:52:08;18.02;;;4.63;;
67274;SDS011;55463;52.324;5.122;2023-01-01T16:54:33;19.75;;;4.32;;
67274;SDS011;55463;52.324;5.122;2023-01-01T16:57:00;23.42;;;4.45;;
67274;SDS011;55463;52.324;5.122;2023-01-01T16:59:25;17.80;;;4.57;;
67274;SDS011;55463;52.324;5.122;2023-01-01T17:01:51;17.67;;;4.03;;
67274;SDS011;55463;52.324;5.122;2023-01-01T17:04:16;18.90;;;4.22;;
67274;SDS011;55463;52.324;5.122;2023-01-01T17:06:41;20.88;;;4.57;;
67274;SDS011;55463;52.324;5.122;2023-01-01T17:09:07;11.43;;;3.90;;
67274;SDS011;55463;52.324;5.122;2023-01-01T17:11:32;14.90;;;3.90;;
67274;SDS011;55463;52.324;5.122;2023-01-01T17:13:58;18.13;;;4.65;;
67274;SDS011;55463;52.324;5.122;2023-01-01T17:16:24;14.88;;;4.93;;